Time;durP1;ratioP1;P1;durP2;ratioP2;P2;SDS_P1;SDS_P2;PMS_P1;PMS_P2;Temp;Humidity;BMP_temperature;BMP_pressure;BME280_temperature;BME280_humidity;BME280_pressure;Samples;Min_cycle;Max_cycle;Signal;HPM_P1;HPM_P2
2022/03/01 00:02:17;;;;;;;24.70;15.18;;;;;;;0.79;100.00;102818.44;4981622;28;20045;-71
2022/03/01 00:04:43;;;;;;;29.75;16.10;;;;;;;0.79;100.00;102818.44;4966762;28;20056;-71
2022/03/01 00:07:09;;;;;;;25.60;15.23;;;;;;;0.71;100.00;102813.66;4979130;28;20125;-70
2022/03/01 00:09:35;;;;;;;25.77;15.02;;;;;;;0.61;100.00;102810.72;4977448;28;20056;-70
2022/03/01 00:12:00;;;;;;;26.15;16.45;;;;;;;0.45;100.00;102805.56;4972487;28;20053;-70
2022/03/01 00:14:26;;;;;;;25.60;15.45;;;;;;;0.35;100.00;102803.59;4982203;28;20501;-70
2022/03/01 00:16:51;;;;;;;26.75;16.65;;;;;;;0.22;100.00;102804.38;4952135;28;20049;-70
2022/03/01 00:19:17;;;;;;;29.52;16.27;;;;;;;0.12;100.00;102808.56;4974206;28;20040;-70
2022/03/01 00:21:42;;;;;;;30.23;16.40;;;;;;;0.00;100.00;102806.69;4961516;28;20153;-70
2022/03/01 00:24:08;;;;;;;26.33;16.23;;;;;;;-0.15;100.00;102804.97;4971132;28;20056;-69
2022/03/01 00:26:33;;;;;;;26.70;16.80;;;;;;;-0.29;100.00;102803.19;4980961;28;20523;-70
2022/03/01 00:28:59;;;;;;;31.73;15.55;;;;;;;-0.39;100.00;102797.59;4945850;28;20129;-69
2022/03/01 00:31:24;;;;;;;29.08;16.02;;;;;;;-0.47;100.00;102804.31;4979637;28;20044;-69
2022/03/01 00:33:49;;;;;;;30.60;17.65;;;;;;;-0.49;100.00;102809.72;4974509;28;20050;-72
2022/03/01 00:36:15;;;;;;;33.42;17.48;;;;;;;-0.55;100.00;102808.28;4959656;28;20041;-72
2022/03/01 00:38:40;;;;;;;28.02;15.95;;;;;;;-0.67;100.00;102824.03;4962666;28;20041;-71
2022/03/01 00:41:06;;;;;;;27.98;17.50;;;;;;;-0.79;100.00;102815.88;4964456;28;20073;-72
2022/03/01 00:43:31;;;;;;;32.65;17.17;;;;;;;-0.75;100.00;102816.53;4980713;28;20033;-71
2022/03/01 00:45:57;;;;;;;32.22;17.42;;;;;;;-0.70;100.00;102822.44;4961567;28;20129;-72
2022/03/01 00:48:22;;;;;;;32.00;17.98;;;;;;;-0.75;100.00;102806.81;4961890;28;20134;-72
2022/03/01 00:50:48;;;;;;;37.85;18.85;;;;;;;-0.66;100.00;102815.16;4969318;28;20469;-72
2022/03/01 00:53:14;;;;;;;29.95;17.30;;;;;;;-0.66;100.00;102817.81;4962383;28;20100;-71
2022/03/01 00:55:39;;;;;;;31.27;18.02;;;;;;;-0.42;100.00;102813.69;4961228;28;20107;-71
2022/03/01 00:58:05;;;;;;;34.20;18.63;;;;;;;-0.37;100.00;102811.59;4951026;28;20052;-71
2022/03/01 01:00:31;;;;;;;32.22;17.60;;;;;;;-0.23;100.00;102812.56;4980731;28;20583;-71
2022/03/01 01:02:57;;;;;;;31.17;17.92;;;;;;;-0.15;100.00;102805.81;4980108;28;20065;-71
2022/03/01 01:05:23;;;;;;;26.83;16.15;;;;;;;-0.04;100.00;102813.97;4948976;28;22805;-72
2022/03/01 01:07:49;;;;;;;29.92;17.55;;;;;;;0.04;100.00;102816.16;4970155;28;20037;-72
2022/03/01 01:10:15;;;;;;;26.58;17.08;;;;;;;0.05;100.00;102822.31;4948928;28;20058;-72
2022/03/01 01:12:41;;;;;;;25.27;15.90;;;;;;;0.01;100.00;102816.34;4981415;28;20116;-71
2022/03/01 01:15:07;;;;;;;34.50;18.45;;;;;;;0.04;100.00;102821.44;4967055;28;20087;-70
2022/03/01 01:17:33;;;;;;;30.08;17.50;;;;;;;0.03;100.00;102825.03;4963383;28;23705;-70
2022/03/01 01:19:59;;;;;;;34.17;17.67;;;;;;;0.00;100.00;102822.59;4966891;28;20091;-70
2022/03/01 01:22:40;;;;;;;29.35;17.88;;;;;;;0.00;100.00;102817.28;4950757;28;20173;-70
2022/03/01 01:25:09;;;;;;;27.52;16.85;;;;;;;-0.01;100.00;102812.94;4980786;28;20037;-69
2022/03/01 01:27:35;;;;;;;32.88;17.08;;;;;;;-0.02;100.00;102811.22;4972930;28;20038;-69
2022/03/01 01:30:00;;;;;;;28.10;16.55;;;;;;;-0.03;100.00;102799.78;4970041;28;20052;-69
2022/03/01 01:32:26;;;;;;;30.45;16.77;;;;;;;-0.01;100.00;102799.69;4982296;28;20068;-69
2022/03/01 01:34:52;;;;;;;30.15;17.00;;;;;;;0.01;100.00;102804.91;4965693;28;20187;-69
2022/03/01 01:37:18;;;;;;;27.52;16.52;;;;;;;-0.01;100.00;102803.16;4981722;28;20048;-69
2022/03/01 01:39:43;;;;;;;29.75;17.75;;;;;;;-0.09;100.00;102799.31;4960546;28;20041;-69
2022/03/01 01:42:09;;;;;;;27.60;17.00;;;;;;;-0.13;100.00;102805.75;4956496;28;20050;-70
2022/03/01 01:44:34;;;;;;;31.13;17.15;;;;;;;-0.09;100.00;102799.31;4980266;28;20041;-70
2022/03/01 01:47:00;;;;;;;33.20;18.77;;;;;;;-0.05;100.00;102796.38;4962952;28;20056;-70
2022/03/01 01:49:26;;;;;;;32.83;16.95;;;;;;;-0.09;100.00;102805.47;4980806;28;20064;-70
2022/03/01 01:51:51;;;;;;;28.17;16.95;;;;;;;-0.12;100.00;102797.69;4960086;28;20478;-70
2022/03/01 01:54:17;;;;;;;32.47;18.58;;;;;;;-0.10;100.00;102803.75;4957011;28;20049;-70
2022/03/01 01:56:42;;;;;;;38.28;18.50;;;;;;;-0.11;100.00;102804.69;4981973;28;20042;-70
2022/03/01 01:59:08;;;;;;;33.05;17.58;;;;;;;-0.18;100.00;102806.00;4962380;28;20050;-69
2022/03/01 02:01:33;;;;;;;30.42;19.60;;;;;;;-0.31;100.00;102795.34;4981428;28;21168;-69
2022/03/01 02:03:59;;;;;;;31.75;18.23;;;;;;;-0.30;100.00;102796.19;4973589;28;20556;-69
2022/03/01 02:06:27;;;;;;;31.15;18.38;;;;;;;-0.27;100.00;102804.81;4951189;28;20093;-69
2022/03/01 02:08:52;;;;;;;27.98;17.75;;;;;;;-0.32;100.00;102809.50;4981344;28;20390;-69
2022/03/01 02:11:18;;;;;;;31.13;17.58;;;;;;;-0.38;100.00;102794.03;4966146;28;20177;-69
2022/03/01 02:13:43;;;;;;;32.10;19.45;;;;;;;-0.46;100.00;102801.56;4968075;28;20517;-69
2022/03/01 02:16:09;;;;;;;30.02;18.63;;;;;;;-0.42;100.00;102792.50;4959590;28;20092;-69
2022/03/01 02:18:35;;;;;;;30.85;18.67;;;;;;;-0.32;100.00;102792.78;4974571;28;20107;-69
2022/03/01 02:21:01;;;;;;;31.95;17.55;;;;;;;-0.37;100.00;102797.50;4963842;28;20459;-69
2022/03/01 02:23:27;;;;;;;32.88;18.02;;;;;;;-0.35;100.00;102791.19;4938570;28;20140;-69
2022/03/01 02:25:52;;;;;;;29.45;16.08;;;;;;;-0.38;100.00;102804.59;4982783;28;25192;-69
2022/03/01 02:28:18;;;;;;;33.35;18.70;;;;;;;-0.39;100.00;102800.25;4958860;28;20172;-69
2022/03/01 02:30:43;;;;;;;30.08;17.85;;;;;;;-0.53;100.00;102797.56;4956231;28;20053;-69
2022/03/01 02:33:09;;;;;;;34.22;18.25;;;;;;;-0.53;100.00;102800.22;4967028;28;20041;-69
2022/03/01 02:35:34;;;;;;;33.50;18.38;;;;;;;-0.59;100.00;102803.25;4952762;28;20049;-69
2022/03/01 02:38:00;;;;;;;29.45;17.95;;;;;;;-0.60;100.00;102794.44;4954050;28;20038;-69
2022/03/01 02:40:25;;;;;;;34.88;18.52;;;;;;;-0.52;100.00;102794.00;4978339;28;20737;-69
2022/03/01 02:42:51;;;;;;;30.52;17.58;;;;;;;-0.61;100.00;102781.31;4958475;28;20077;-69
2022/03/01 02:45:17;;;;;;;32.75;18.25;;;;;;;-0.63;100.00;102793.78;4962664;28;22668;-69
2022/03/01 02:47:43;;;;;;;31.70;18.27;;;;;;;-0.67;100.00;102789.63;4949309;28;20058;-69
2022/03/01 02:50:11;;;;;;;34.60;19.45;;;;;;;-0.65;100.00;102787.75;4965677;28;21024;-70
2022/03/01 02:52:38;;;;;;;30.23;18.77;;;;;;;-0.60;100.00;102777.72;4974772;28;20063;-69
2022/03/01 02:55:04;;;;;;;35.03;18.92;;;;;;;-0.64;100.00;102779.69;4939980;28;20049;-69
2022/03/01 02:57:30;;;;;;;30.20;19.05;;;;;;;-0.72;100.00;102785.47;4982854;28;22847;-69
2022/03/01 02:59:55;;;;;;;34.55;19.30;;;;;;;-0.78;100.00;102793.75;4953101;28;20049;-69
2022/03/01 03:02:21;;;;;;;31.10;19.38;;;;;;;-0.77;100.00;102787.53;4981038;28;20038;-70
2022/03/01 03:04:46;;;;;;;38.08;20.48;;;;;;;-0.74;100.00;102782.06;4967903;28;20053;-70
2022/03/01 03:07:12;;;;;;;35.53;19.35;;;;;;;-0.70;100.00;102787.16;4982994;28;21316;-69
2022/03/01 03:09:38;;;;;;;31.83;19.38;;;;;;;-0.71;100.00;102781.00;4965552;28;20033;-69
2022/03/01 03:12:05;;;;;;;33.75;17.67;;;;;;;-0.74;100.00;102782.06;4967951;28;20624;-70
2022/03/01 03:14:31;;;;;;;32.53;19.52;;;;;;;-0.67;100.00;102776.38;4969039;28;20029;-70
2022/03/01 03:16:57;;;;;;;30.38;18.58;;;;;;;-0.70;100.00;102776.56;4951121;28;20371;-70
2022/03/01 03:19:23;;;;;;;37.00;19.75;;;;;;;-0.69;100.00;102773.00;4967859;28;20768;-70
2022/03/01 03:21:49;;;;;;;35.38;19.95;;;;;;;-0.77;100.00;102771.66;4964635;28;20438;-70
2022/03/01 03:24:15;;;;;;;38.40;20.85;;;;;;;-0.75;100.00;102785.63;4948587;28;20562;-70
2022/03/01 03:26:41;;;;;;;40.05;21.85;;;;;;;-0.79;100.00;102778.81;4982331;28;20029;-70
2022/03/01 03:29:08;;;;;;;35.53;20.73;;;;;;;-0.81;100.00;102774.56;4937832;28;20053;-70
2022/03/01 03:31:39;;;;;;;40.60;20.65;;;;;;;-0.78;100.00;102780.53;4949131;28;20114;-70
2022/03/01 03:34:07;;;;;;;34.65;20.17;;;;;;;-0.83;100.00;102776.47;4969679;28;22842;-69
2022/03/01 03:36:34;;;;;;;35.78;20.55;;;;;;;-0.89;100.00;102779.47;4959759;28;20115;-70
2022/03/01 03:39:00;;;;;;;35.92;19.05;;;;;;;-0.91;100.00;102766.34;4981419;28;20037;-69
2022/03/01 03:41:26;;;;;;;35.75;20.83;;;;;;;-0.86;100.00;102764.25;4948659;28;20482;-69
2022/03/01 03:43:51;;;;;;;37.50;20.67;;;;;;;-0.85;100.00;102768.59;4952039;28;20032;-69
2022/03/01 03:46:17;;;;;;;39.13;21.02;;;;;;;-0.83;100.00;102764.09;4964414;28;22631;-70
2022/03/01 03:48:42;;;;;;;39.10;20.88;;;;;;;-0.69;100.00;102757.13;4952263;28;20111;-69
2022/03/01 03:51:08;;;;;;;35.08;20.55;;;;;;;-0.65;100.00;102763.91;4963667;28;20044;-69
2022/03/01 03:53:33;;;;;;;36.85;20.15;;;;;;;-0.64;100.00;102755.03;4954710;28;20065;-69
2022/03/01 03:55:59;;;;;;;34.65;21.17;;;;;;;-0.69;100.00;102762.41;4964173;28;21006;-69
2022/03/01 03:58:24;;;;;;;36.47;19.55;;;;;;;-0.70;100.00;102768.63;4977536;28;20041;-69
2022/03/01 04:00:50;;;;;;;35.55;20.67;;;;;;;-0.72;100.00;102769.56;4970421;28;22784;-70
2022/03/01 04:03:15;;;;;;;39.15;21.48;;;;;;;-0.62;100.00;102758.44;4981395;28;20082;-70
2022/03/01 04:05:41;;;;;;;37.60;19.75;;;;;;;-0.56;100.00;102766.00;4967499;28;20057;-69
2022/03/01 04:08:07;;;;;;;37.03;21.27;;;;;;;-0.53;100.00;102768.47;4963211;28;20135;-69
2022/03/01 04:10:32;;;;;;;37.30;20.60;;;;;;;-0.44;100.00;102757.31;4958886;28;20644;-69
2022/03/01 04:12:58;;;;;;;35.10;20.20;;;;;;;-0.35;100.00;102758.53;4973127;28;20045;-69
2022/03/01 04:15:23;;;;;;;35.05;20.35;;;;;;;-0.37;100.00;102756.00;4982297;28;20481;-69
2022/03/01 04:17:49;;;;;;;38.83;22.40;;;;;;;-0.37;100.00;102748.06;4934722;28;20065;-68
2022/03/01 04:20:16;;;;;;;39.92;21.10;;;;;;;-0.35;100.00;102750.59;4978675;28;20684;-68
2022/03/01 04:22:41;;;;;;;35.50;21.77;;;;;;;-0.33;100.00;102756.66;4974887;28;20521;-69
2022/03/01 04:25:09;;;;;;;36.22;21.10;;;;;;;-0.32;100.00;102756.53;4951566;28;20099;-68
2022/03/01 04:27:34;;;;;;;36.83;21.65;;;;;;;-0.31;100.00;102760.06;4962095;28;20125;-68
2022/03/01 04:30:00;;;;;;;39.08;20.90;;;;;;;-0.36;100.00;102757.69;4961165;28;20041;-68
2022/03/01 04:32:25;;;;;;;36.78;20.67;;;;;;;-0.39;100.00;102755.22;4967813;28;20176;-68
2022/03/01 04:34:51;;;;;;;39.33;21.63;;;;;;;-0.43;100.00;102761.66;4976549;28;20132;-68
2022/03/01 04:37:16;;;;;;;35.28;20.75;;;;;;;-0.47;100.00;102756.66;4970683;28;20052;-69
2022/03/01 04:39:42;;;;;;;43.33;21.00;;;;;;;-0.56;100.00;102753.63;4983078;28;20037;-69
2022/03/01 04:42:07;;;;;;;34.40;21.75;;;;;;;-0.53;100.00;102757.88;4952128;28;20080;-69
2022/03/01 04:44:33;;;;;;;35.70;21.40;;;;;;;-0.56;100.00;102752.75;4980501;28;20040;-68
2022/03/01 04:47:00;;;;;;;34.95;21.27;;;;;;;-0.57;100.00;102745.78;4972391;28;20615;-69
2022/03/01 04:49:25;;;;;;;38.55;22.00;;;;;;;-0.53;100.00;102747.28;4971263;28;20199;-69
2022/03/01 04:51:51;;;;;;;38.97;21.40;;;;;;;-0.52;100.00;102746.34;4979572;28;20034;-69
2022/03/01 04:54:16;;;;;;;35.00;21.60;;;;;;;-0.53;100.00;102752.56;4962033;28;20061;-69
2022/03/01 04:56:42;;;;;;;38.55;21.40;;;;;;;-0.54;100.00;102745.59;4982358;28;20088;-69
2022/03/01 04:59:09;;;;;;;34.95;20.17;;;;;;;-0.50;100.00;102745.28;4968810;28;20049;-69
2022/03/01 05:01:36;;;;;;;36.20;21.23;;;;;;;-0.47;100.00;102751.34;4971769;28;20080;-69
2022/03/01 05:04:02;;;;;;;34.20;19.70;;;;;;;-0.46;100.00;102747.75;4981079;28;20061;-69
2022/03/01 05:06:27;;;;;;;34.92;20.67;;;;;;;-0.41;100.00;102746.53;4964463;28;20045;-69
2022/03/01 05:08:53;;;;;;;36.15;19.08;;;;;;;-0.42;100.00;102739.56;4976552;28;20485;-69
2022/03/01 05:11:18;;;;;;;38.25;21.27;;;;;;;-0.42;100.00;102742.19;4960331;28;20153;-69
2022/03/01 05:13:44;;;;;;;34.92;20.02;;;;;;;-0.34;100.00;102737.28;4970237;28;20057;-69
2022/03/01 05:16:09;;;;;;;35.45;20.80;;;;;;;-0.35;100.00;102735.56;4979858;28;20033;-69
2022/03/01 05:18:34;;;;;;;35.22;20.35;;;;;;;-0.29;100.00;102740.47;4964320;28;20061;-69
2022/03/01 05:21:00;;;;;;;39.92;20.67;;;;;;;-0.26;100.00;102745.56;4979757;28;20030;-69
2022/03/01 05:23:27;;;;;;;37.65;21.02;;;;;;;-0.19;100.00;102750.50;4974602;28;20045;-69
2022/03/01 05:25:53;;;;;;;34.33;19.85;;;;;;;-0.12;100.00;102741.22;4970972;28;20095;-69
2022/03/01 05:28:19;;;;;;;34.45;19.55;;;;;;;-0.06;100.00;102746.97;4979783;28;20514;-69
2022/03/01 05:30:45;;;;;;;33.00;19.70;;;;;;;-0.09;100.00;102746.31;4965263;28;20061;-69
2022/03/01 05:33:10;;;;;;;32.97;19.77;;;;;;;-0.12;100.00;102735.91;4980243;28;20038;-70
2022/03/01 05:35:37;;;;;;;31.08;19.00;;;;;;;-0.12;100.00;102741.22;4974779;28;20083;-70
2022/03/01 05:38:03;;;;;;;30.20;17.88;;;;;;;-0.03;100.00;102740.66;4973435;28;20053;-68
2022/03/01 05:40:30;;;;;;;36.42;19.63;;;;;;;0.05;100.00;102748.94;4960398;28;20038;-69
2022/03/01 05:42:57;;;;;;;33.10;19.20;;;;;;;0.01;100.00;102736.84;4962692;28;20045;-70
2022/03/01 05:45:25;;;;;;;33.13;19.85;;;;;;;0.09;100.00;102744.31;4972833;28;20038;-70
2022/03/01 05:47:50;;;;;;;32.40;19.27;;;;;;;0.06;100.00;102737.41;4953422;28;20050;-70
2022/03/01 05:50:16;;;;;;;34.13;18.90;;;;;;;0.09;100.00;102746.97;4970855;28;20037;-70
2022/03/01 05:52:42;;;;;;;33.15;19.95;;;;;;;0.07;100.00;102751.50;4971297;28;22821;-71
2022/03/01 05:55:09;;;;;;;32.17;19.75;;;;;;;0.03;100.00;102744.69;4966173;28;20069;-70
2022/03/01 05:57:35;;;;;;;33.25;19.88;;;;;;;-0.04;100.00;102745.06;4982226;28;20026;-70
2022/03/01 06:00:01;;;;;;;29.20;18.35;;;;;;;-0.01;100.00;102744.88;4967704;28;23582;-70
2022/03/01 06:02:26;;;;;;;34.65;19.60;;;;;;;0.02;100.00;102750.94;4953341;28;20112;-70
2022/03/01 06:04:52;;;;;;;28.17;18.48;;;;;;;-0.04;100.00;102752.16;4982048;28;20033;-70
2022/03/01 06:07:19;;;;;;;34.42;20.02;;;;;;;-0.12;100.00;102746.53;4968129;28;20060;-70
2022/03/01 06:09:44;;;;;;;32.35;20.75;;;;;;;-0.13;100.00;102750.13;4964078;28;20053;-70
2022/03/01 06:12:10;;;;;;;32.05;19.65;;;;;;;-0.15;100.00;102749.34;4963682;28;20545;-70
2022/03/01 06:14:35;;;;;;;33.22;19.75;;;;;;;-0.15;100.00;102752.84;4983551;28;20022;-70
2022/03/01 06:17:00;;;;;;;31.30;19.02;;;;;;;-0.12;100.00;102755.31;4983782;28;20155;-70
2022/03/01 06:19:26;;;;;;;35.13;20.33;;;;;;;-0.04;100.00;102768.06;4967614;28;20594;-71
2022/03/01 06:21:52;;;;;;;35.45;19.73;;;;;;;-0.07;100.00;102760.31;4971553;28;20026;-70
2022/03/01 06:24:18;;;;;;;34.08;19.38;;;;;;;-0.05;100.00;102763.72;4953670;28;20051;-70
2022/03/01 06:26:43;;;;;;;37.03;20.83;;;;;;;0.00;100.00;102772.25;4968658;28;20030;-70
2022/03/01 06:29:09;;;;;;;38.53;21.92;;;;;;;0.02;100.00;102775.63;4983250;28;20281;-70
2022/03/01 06:31:34;;;;;;;34.40;21.00;;;;;;;0.08;100.00;102775.25;4966075;28;23094;-70
2022/03/01 06:33:59;;;;;;;35.83;21.55;;;;;;;0.01;100.00;102779.25;4984361;28;20048;-69
2022/03/01 06:36:25;;;;;;;36.58;21.80;;;;;;;0.04;100.00;102779.06;4931642;28;20054;-69
2022/03/01 06:38:51;;;;;;;34.17;20.25;;;;;;;0.07;100.00;102797.41;4967930;28;20163;-69
2022/03/01 06:41:17;;;;;;;35.90;20.55;;;;;;;0.10;100.00;102788.41;4982892;28;23569;-69
2022/03/01 06:43:42;;;;;;;34.35;21.33;;;;;;;0.15;100.00;102792.47;4965842;28;20064;-69
2022/03/01 06:46:08;;;;;;;35.33;20.70;;;;;;;0.18;100.00;102802.03;4963684;28;20041;-69
2022/03/01 06:48:33;;;;;;;35.08;21.52;;;;;;;0.18;100.00;102802.88;4966899;28;20069;-69
2022/03/01 06:50:59;;;;;;;39.40;21.02;;;;;;;0.31;100.00;102796.78;4964179;28;20030;-71
2022/03/01 06:53:24;;;;;;;33.40;21.23;;;;;;;0.38;100.00;102808.69;4981854;28;20422;-69
2022/03/01 06:55:50;;;;;;;35.70;20.70;;;;;;;0.48;100.00;102799.22;4953395;28;20068;-69
2022/03/01 06:58:16;;;;;;;34.25;20.45;;;;;;;0.50;100.00;102802.63;4982449;28;20116;-69
2022/03/01 07:00:42;;;;;;;32.60;19.70;;;;;;;0.52;100.00;102806.00;4964466;28;20207;-69
2022/03/01 07:03:07;;;;;;;35.03;20.73;;;;;;;0.56;100.00;102802.25;4978627;28;20032;-68
2022/03/01 07:05:33;;;;;;;36.67;21.50;;;;;;;0.56;100.00;102804.00;4961198;28;20029;-69
2022/03/01 07:07:58;;;;;;;36.20;21.65;;;;;;;0.58;100.00;102807.44;4965685;28;20594;-69
2022/03/01 07:10:24;;;;;;;33.70;20.55;;;;;;;0.62;100.00;102808.94;4984378;28;20505;-69
2022/03/01 07:12:50;;;;;;;38.30;21.92;;;;;;;0.66;100.00;102813.91;4955036;28;20506;-69
2022/03/01 07:15:16;;;;;;;36.33;22.05;;;;;;;0.74;100.00;102802.84;4966289;28;20029;-69
2022/03/01 07:17:41;;;;;;;35.35;20.65;;;;;;;0.81;100.00;102805.91;4968659;28;20029;-69
2022/03/01 07:20:08;;;;;;;39.17;21.50;;;;;;;0.92;100.00;102806.91;4970196;28;25229;-69
2022/03/01 07:22:34;;;;;;;32.70;21.13;;;;;;;1.04;100.00;102802.59;4965974;28;20034;-69
2022/03/01 07:25:00;;;;;;;35.10;20.88;;;;;;;1.17;100.00;102803.47;4964530;28;20046;-69
2022/03/01 07:27:25;;;;;;;35.42;20.50;;;;;;;1.32;100.00;102806.03;4981895;28;20121;-69
2022/03/01 07:29:50;;;;;;;36.55;20.35;;;;;;;1.41;100.00;102806.28;4977205;28;20026;-70
2022/03/01 07:32:16;;;;;;;37.72;21.60;;;;;;;1.56;100.00;102808.81;4969416;28;20053;-70
2022/03/01 07:34:42;;;;;;;33.20;21.45;;;;;;;1.66;100.00;102805.44;4963101;28;20052;-69
2022/03/01 07:37:09;;;;;;;33.03;19.70;;;;;;;1.82;100.00;102812.31;4964716;28;20156;-70
2022/03/01 07:39:34;;;;;;;35.35;20.40;;;;;;;1.94;100.00;102807.97;4963151;28;20033;-70
2022/03/01 07:42:00;;;;;;;30.30;19.85;;;;;;;2.05;100.00;102816.88;4959619;28;20049;-70
2022/03/01 07:44:25;;;;;;;31.08;19.90;;;;;;;2.15;100.00;102807.28;4972557;28;20053;-69
2022/03/01 07:46:51;;;;;;;28.65;19.15;;;;;;;2.25;100.00;102811.97;4984070;28;21077;-70
2022/03/01 07:49:17;;;;;;;32.22;19.02;;;;;;;2.39;100.00;102814.47;4956066;28;20046;-70
2022/03/01 07:51:42;;;;;;;31.48;19.20;;;;;;;2.54;100.00;102813.34;4964874;28;20035;-71
2022/03/01 07:54:08;;;;;;;31.42;19.75;;;;;;;2.71;100.00;102820.09;4974711;28;20133;-71
2022/03/01 07:56:34;;;;;;;33.78;19.77;;;;;;;2.81;100.00;102812.28;4970749;28;20315;-70
2022/03/01 07:59:00;;;;;;;33.28;19.35;;;;;;;2.84;100.00;102820.00;4983723;28;20457;-70
2022/03/01 08:01:26;;;;;;;29.25;18.92;;;;;;;2.86;100.00;102818.94;4965003;28;20060;-70
2022/03/01 08:03:51;;;;;;;30.77;19.77;;;;;;;2.86;100.00;102820.75;4982411;28;20045;-69
2022/03/01 08:06:17;;;;;;;34.88;19.83;;;;;;;2.89;100.00;102817.88;4973114;28;20517;-70
2022/03/01 08:08:43;;;;;;;27.30;18.75;;;;;;;3.00;100.00;102820.59;4975258;28;20090;-70
2022/03/01 08:11:09;;;;;;;28.25;18.33;;;;;;;3.07;100.00;102820.97;4987272;28;20037;-69
2022/03/01 08:13:35;;;;;;;30.02;19.52;;;;;;;3.06;100.00;102825.47;4968682;28;20129;-69
2022/03/01 08:16:02;;;;;;;31.65;19.17;;;;;;;3.12;100.00;102829.44;4981318;28;20029;-70
2022/03/01 08:18:27;;;;;;;29.63;18.40;;;;;;;3.17;100.00;102831.78;4955519;28;22121;-70
2022/03/01 08:20:53;;;;;;;26.83;18.17;;;;;;;3.25;100.00;102826.72;4971214;28;20044;-70
2022/03/01 08:23:18;;;;;;;35.05;18.85;;;;;;;3.29;100.00;102831.69;4976145;28;20709;-69
2022/03/01 08:25:44;;;;;;;30.88;19.00;;;;;;;3.39;100.00;102826.53;4965378;28;20485;-70
2022/03/01 08:28:09;;;;;;;33.05;19.42;;;;;;;3.42;100.00;102828.97;4961433;28;20448;-70
2022/03/01 08:30:36;;;;;;;34.08;18.88;;;;;;;3.51;100.00;102838.91;4959488;28;20053;-70
2022/03/01 08:33:02;;;;;;;31.25;18.83;;;;;;;3.56;100.00;102839.41;4952663;28;20053;-70
2022/03/01 08:35:28;;;;;;;32.40;19.25;;;;;;;3.64;100.00;102835.28;4981359;28;20064;-70
2022/03/01 08:37:54;;;;;;;28.50;17.95;;;;;;;3.66;100.00;102838.69;4964660;28;20417;-70
2022/03/01 08:40:21;;;;;;;31.60;19.67;;;;;;;3.63;100.00;102828.28;4960843;28;20082;-71
2022/03/01 08:42:47;;;;;;;30.05;19.38;;;;;;;3.70;100.00;102837.50;4943327;28;20052;-70
2022/03/01 08:45:12;;;;;;;29.23;19.02;;;;;;;3.73;100.00;102839.94;4957162;28;20053;-70
2022/03/01 08:47:39;;;;;;;33.38;18.95;;;;;;;3.85;100.00;102844.28;4980136;28;20080;-70
2022/03/01 08:50:05;;;;;;;34.10;19.02;;;;;;;3.99;100.00;102840.53;4966384;28;20057;-71
2022/03/01 08:52:31;;;;;;;27.73;18.00;;;;;;;4.23;100.00;102837.75;4966400;28;20539;-70
2022/03/01 08:54:56;;;;;;;29.55;18.58;;;;;;;4.42;100.00;102827.31;4955740;28;20064;-71
2022/03/01 08:57:22;;;;;;;30.10;18.95;;;;;;;4.50;100.00;102827.53;4952556;28;20241;-70
2022/03/01 08:59:47;;;;;;;25.00;17.55;;;;;;;4.66;100.00;102829.78;4980923;28;20029;-70
2022/03/01 09:02:13;;;;;;;27.13;17.92;;;;;;;4.72;100.00;102823.94;4963439;28;20057;-71
2022/03/01 09:04:39;;;;;;;26.75;17.65;;;;;;;4.81;100.00;102817.03;4962449;28;20755;-71
2022/03/01 09:07:04;;;;;;;33.22;17.75;;;;;;;5.09;100.00;102831.59;4964149;28;20049;-72
2022/03/01 09:09:31;;;;;;;29.77;18.92;;;;;;;5.25;100.00;102841.84;4981790;28;20034;-72
2022/03/01 09:11:57;;;;;;;30.88;19.25;;;;;;;5.33;100.00;102836.69;4962369;28;20038;-71
2022/03/01 09:14:23;;;;;;;31.13;18.67;;;;;;;5.43;100.00;102845.63;4945065;28;20669;-71
2022/03/01 09:16:48;;;;;;;37.90;17.88;;;;;;;5.60;100.00;102859.38;4981469;28;20144;-71
2022/03/01 09:19:14;;;;;;;33.42;18.92;;;;;;;5.79;100.00;102855.97;4965589;28;20054;-71
2022/03/01 09:21:40;;;;;;;30.95;18.05;;;;;;;5.97;100.00;102849.09;4981139;28;20099;-71
2022/03/01 09:24:06;;;;;;;32.25;17.98;;;;;;;6.26;92.86;102849.19;4980895;28;20028;-71
2022/03/01 09:26:31;;;;;;;31.77;18.25;;;;;;;6.71;85.88;102848.75;4945096;28;20394;-71
2022/03/01 09:28:57;;;;;;;26.65;18.25;;;;;;;7.03;82.28;102847.66;4960944;28;20025;-71
2022/03/01 09:31:22;;;;;;;25.05;16.85;;;;;;;7.52;74.56;102843.97;4962101;28;20073;-70
2022/03/01 09:33:48;;;;;;;26.38;17.48;;;;;;;7.81;71.05;102846.56;4978744;28;20414;-71
2022/03/01 09:36:14;;;;;;;23.70;17.15;;;;;;;8.03;67.54;102847.19;4961808;28;20316;-69
2022/03/01 09:38:40;;;;;;;27.33;17.30;;;;;;;8.68;66.15;102848.03;4933517;28;20714;-70
2022/03/01 09:41:06;;;;;;;22.83;16.02;;;;;;;8.75;61.97;102841.06;4964261;28;20030;-70
2022/03/01 09:43:36;;;;;;;27.42;17.13;;;;;;;8.89;61.98;102836.16;4948823;28;20045;-70
2022/03/01 09:46:01;;;;;;;25.70;16.05;;;;;;;8.64;60.91;102830.53;4980301;28;20079;-71
2022/03/01 09:48:27;;;;;;;23.75;16.08;;;;;;;8.30;61.28;102819.53;4962147;28;20390;-71
2022/03/01 09:50:52;;;;;;;23.73;15.80;;;;;;;8.13;63.04;102822.00;4948523;28;20772;-69
2022/03/01 09:53:18;;;;;;;23.15;16.85;;;;;;;8.12;65.41;102835.59;4955028;28;20066;-69
2022/03/01 09:55:43;;;;;;;25.27;16.35;;;;;;;8.03;65.93;102833.78;4945120;28;24953;-70
2022/03/01 09:58:09;;;;;;;23.75;16.85;;;;;;;7.84;65.70;102832.88;4961150;28;20046;-69
2022/03/01 10:00:34;;;;;;;24.88;16.98;;;;;;;7.76;67.17;102827.41;4953289;28;20092;-69
2022/03/01 10:03:00;;;;;;;27.20;17.55;;;;;;;7.62;68.66;102822.50;4920979;28;20064;-70
2022/03/01 10:05:34;;;;;;;25.42;16.90;;;;;;;7.38;69.93;102815.75;4963430;28;20037;-70
2022/03/01 10:08:29;;;;;;;24.70;15.98;;;;;;;7.32;74.15;102834.25;4937403;28;20549;-71
2022/03/01 10:10:55;;;;;;;26.65;17.45;;;;;;;7.18;81.19;102825.66;4947944;28;20528;-70
2022/03/01 10:13:23;;;;;;;24.33;17.92;;;;;;;7.22;85.49;102826.22;4943057;28;20050;-71
2022/03/01 10:16:21;;;;;;;27.75;18.65;;;;;;;7.19;89.08;102831.84;4934295;28;20058;-71
2022/03/01 10:18:52;;;;;;;25.05;17.20;;;;;;;7.41;93.84;102834.25;4959182;28;21183;-70
2022/03/01 10:21:19;;;;;;;28.65;17.90;;;;;;;7.74;83.53;102845.47;4935149;28;20050;-69
2022/03/01 10:23:47;;;;;;;25.75;17.50;;;;;;;7.92;76.35;102842.88;4945032;28;20038;-71
2022/03/01 10:26:24;;;;;;;30.65;16.73;;;;;;;8.03;76.55;102849.88;4928613;28;20460;-70
2022/03/01 10:28:51;;;;;;;23.50;16.55;;;;;;;8.04;72.55;102856.97;4945856;28;20045;-70
2022/03/01 10:31:19;;;;;;;25.98;17.95;;;;;;;8.10;72.29;102859.03;4945829;28;20032;-71
2022/03/01 10:33:56;;;;;;;23.95;17.88;;;;;;;8.24;73.79;102849.66;4953754;28;20068;-69
2022/03/01 10:36:29;;;;;;;23.58;15.05;;;;;;;8.39;71.36;102841.97;4951221;28;20032;-71
2022/03/01 10:38:56;;;;;;;23.33;15.55;;;;;;;8.68;65.77;102848.03;4905326;28;20047;-71
2022/03/01 10:41:24;;;;;;;20.45;14.63;;;;;;;9.27;60.23;102854.66;4953610;28;20117;-71
2022/03/01 10:43:54;;;;;;;25.85;15.30;;;;;;;9.50;55.62;102864.94;4940540;28;20157;-71
2022/03/01 10:46:20;;;;;;;23.90;15.50;;;;;;;9.96;55.44;102860.19;4961937;28;20039;-71
2022/03/01 10:48:45;;;;;;;24.20;14.38;;;;;;;10.26;53.93;102856.19;4945429;28;20041;-71
2022/03/01 10:51:11;;;;;;;19.75;15.20;;;;;;;10.93;52.59;102854.34;4916980;28;20058;-71
2022/03/01 10:53:39;;;;;;;19.48;14.35;;;;;;;11.16;50.16;102853.69;4972516;28;20049;-71
2022/03/01 10:56:07;;;;;;;19.77;15.20;;;;;;;11.28;48.11;102851.53;4966184;28;20053;-71
2022/03/01 10:58:35;;;;;;;23.23;16.23;;;;;;;11.02;49.36;102852.53;4983492;28;20048;-71
2022/03/01 11:01:01;;;;;;;21.15;14.95;;;;;;;11.16;48.34;102851.88;4970258;28;20343;-71
2022/03/01 11:03:27;;;;;;;21.40;15.32;;;;;;;11.30;49.53;102849.47;4968639;28;20387;-71